createdAt,value
2022-07-25T00:01:46.261Z,101127.28
2022-07-25T00:04:14.338Z,101110.59
2022-07-25T00:06:42.442Z,101113.69
2022-07-25T00:09:09.726Z,101101.06
2022-07-25T00:11:36.488Z,101099.25
2022-07-25T00:14:04.143Z,101097.97
2022-07-25T00:16:30.892Z,101092.78
2022-07-25T00:18:57.538Z,101088.75
2022-07-25T00:21:23.949Z,101081.97
2022-07-25T00:23:50.392Z,101079.88
2022-07-25T00:26:17.022Z,101077.44
2022-07-25T00:28:43.802Z,101069.53
2022-07-25T00:31:10.508Z,101066.31
2022-07-25T00:33:36.981Z,101066.63
2022-07-25T00:36:03.469Z,101055.94
2022-07-25T00:38:30.961Z,101053.38
2022-07-25T00:40:57.820Z,101054.50
2022-07-25T00:43:24.217Z,101054.84
2022-07-25T00:45:50.753Z,101044.16
2022-07-25T00:48:17.156Z,101043.69
2022-07-25T00:50:43.958Z,101042.84
2022-07-25T00:53:10.451Z,101045.13
2022-07-25T00:55:37.325Z,101039.50
2022-07-25T00:58:03.889Z,101043.41
2022-07-25T01:00:30.664Z,101035.44
2022-07-25T01:02:57.471Z,101033.03
2022-07-25T01:05:27.221Z,101017.97
2022-07-25T01:07:54.272Z,101015.56
2022-07-25T01:10:20.773Z,101008.44
2022-07-25T01:12:52.558Z,101010.72
2022-07-25T01:15:20.302Z,101018.50
2022-07-25T01:17:46.876Z,101011.38
2022-07-25T01:20:23.325Z,101003.13
2022-07-25T01:22:49.875Z,101003.91
2022-07-25T01:25:16.914Z,101000.84
2022-07-25T01:27:44.174Z,100998.09
2022-07-25T01:30:13.728Z,100994.19
2022-07-25T01:32:41.361Z,101005.22
2022-07-25T01:35:08.656Z,100987.06
2022-07-25T01:37:35.186Z,100989.47
2022-07-25T01:40:02.485Z,100989.47
2022-07-25T01:42:30.076Z,100988.69
2022-07-25T01:44:57.736Z,100983.97
2022-07-25T01:47:24.187Z,100979.28
2022-07-25T01:49:50.674Z,100983.66
2022-07-25T01:52:17.309Z,100989.00
2022-07-25T01:54:43.770Z,100991.75
2022-07-25T01:57:10.614Z,100994.19
2022-07-25T01:59:39.920Z,100988.69
2022-07-25T02:02:08.085Z,100987.91
2022-07-25T02:04:35.468Z,100986.31
2022-07-25T02:07:02.430Z,100979.19
2022-07-25T02:09:28.817Z,100981.47
2022-07-25T02:11:55.545Z,100968.50
2022-07-25T02:14:22.878Z,100968.81
2022-07-25T02:16:49.807Z,100950.69
2022-07-25T02:19:16.354Z,100959.13
2022-07-25T02:21:42.985Z,100955.13
2022-07-25T02:24:09.903Z,100954.78
2022-07-25T02:26:36.584Z,100966.44
2022-07-25T02:29:03.250Z,100972.63
2022-07-25T02:31:29.692Z,100968.25
2022-07-25T02:33:56.949Z,100952.88
2022-07-25T02:36:23.370Z,100946.56
2022-07-25T02:38:49.754Z,100948.03
2022-07-25T02:41:16.134Z,100939.28
2022-07-25T02:43:42.560Z,100933.28
2022-07-25T02:46:09.021Z,100932.81
2022-07-25T02:48:35.509Z,100938.31
2022-07-25T02:51:01.953Z,100926.03
2022-07-25T02:53:47.094Z,100921.97
2022-07-25T02:56:15.219Z,100912.09
2022-07-25T02:58:42.942Z,100912.09
2022-07-25T03:01:09.501Z,100920.34
2022-07-25T03:03:36.195Z,100912.75
2022-07-25T03:06:02.856Z,100907.91
2022-07-25T03:08:29.252Z,100909.72
2022-07-25T03:10:55.677Z,100899.84
2022-07-25T03:13:22.140Z,100900.50
2022-07-25T03:15:49.838Z,100896.50
2022-07-25T03:18:17.313Z,100903.47
2022-07-25T03:20:43.788Z,100897.81
2022-07-25T03:23:10.282Z,100888.28
2022-07-25T03:25:36.701Z,100887.47
2022-07-25T03:28:03.119Z,100888.94
2022-07-25T03:30:29.501Z,100887.31
2022-07-25T03:32:55.941Z,100877.78
2022-07-25T03:35:22.412Z,100872.63
2022-07-25T03:37:48.797Z,100876.97
2022-07-25T03:40:15.871Z,100874.72
2022-07-25T03:42:42.682Z,100870.34
2022-07-25T03:45:09.781Z,100869.69
2022-07-25T03:47:36.286Z,100870.00
2022-07-25T03:50:02.800Z,100878.41
2022-07-25T03:52:29.273Z,100870.97
2022-07-25T03:54:56.733Z,100878.41
2022-07-25T03:57:24.232Z,100876.47
2022-07-25T03:59:50.677Z,100864.66
2022-07-25T04:02:17.169Z,100864.66
2022-07-25T04:04:48.882Z,100856.88
2022-07-25T04:07:15.430Z,100857.38
2022-07-25T04:09:43.844Z,100853.94
2022-07-25T04:12:10.397Z,100841.81
2022-07-25T04:14:37.889Z,100852.13
2022-07-25T04:17:06.668Z,100858.09
2022-07-25T04:19:35.665Z,100857.91
2022-07-25T04:22:03.065Z,100854.50
2022-07-25T04:24:31.562Z,100857.72
2022-07-25T04:26:58.048Z,100856.28
2022-07-25T04:29:24.472Z,100866.47
2022-07-25T04:31:51.029Z,100861.44
2022-07-25T04:34:17.469Z,100869.03
2022-07-25T04:36:43.896Z,100862.06
2022-07-25T04:39:10.318Z,100855.06
2022-07-25T04:41:36.720Z,100853.97
2022-07-25T04:44:03.720Z,100870.16
2022-07-25T04:46:31.312Z,100866.41
2022-07-25T04:48:57.750Z,100863.44
2022-07-25T04:51:24.243Z,100863.59
2022-07-25T04:53:50.769Z,100857.44
2022-07-25T04:56:18.264Z,100851.56
2022-07-25T04:58:44.744Z,100855.94
2022-07-25T05:01:11.222Z,100857.22
2022-07-25T05:03:37.640Z,100857.00
2022-07-25T05:06:04.180Z,100849.22
2022-07-25T05:08:30.934Z,100837.41
2022-07-25T05:10:57.440Z,100850.50
2022-07-25T05:13:23.865Z,100846.63
2022-07-25T05:15:51.276Z,100839.97
2022-07-25T05:18:17.813Z,100845.13
2022-07-25T05:20:44.239Z,100847.09
2022-07-25T05:23:10.639Z,100840.75
2022-07-25T05:25:37.032Z,100835.59
2022-07-25T05:28:03.507Z,100846.25
2022-07-25T05:30:29.939Z,100853.84
2022-07-25T05:32:56.376Z,100856.09
2022-07-25T05:35:22.900Z,100840.50
2022-07-25T05:37:49.513Z,100839.81
2022-07-25T05:40:15.953Z,100840.41
2022-07-25T05:42:42.429Z,100842.28
2022-07-25T05:45:09.090Z,100842.91
2022-07-25T05:47:35.575Z,100849.69
2022-07-25T05:50:02.959Z,100854.16
2022-07-25T05:52:29.381Z,100844.75
2022-07-25T05:54:55.823Z,100848.44
2022-07-25T05:57:22.396Z,100848.72
2022-07-25T05:59:48.833Z,100851.47
2022-07-25T06:02:15.321Z,100857.00
2022-07-25T06:04:41.941Z,100864.13
2022-07-25T06:07:08.447Z,100877.44
2022-07-25T06:09:37.271Z,100873.06
2022-07-25T06:12:03.964Z,100866.25
2022-07-25T06:14:30.694Z,100872.44
2022-07-25T06:16:57.296Z,100875.53
2022-07-25T06:19:24.109Z,100879.22
2022-07-25T06:21:50.709Z,100878.38
2022-07-25T06:24:17.129Z,100875.53
2022-07-25T06:26:43.620Z,100871.53
2022-07-25T06:29:10.226Z,100865.25
2022-07-25T06:31:36.712Z,100864.00
2022-07-25T06:34:03.648Z,100865.50
2022-07-25T06:36:32.496Z,100858.84
2022-07-25T06:38:59.769Z,100868.38
2022-07-25T06:41:26.196Z,100875.06
2022-07-25T06:43:53.697Z,100861.25
2022-07-25T06:46:20.395Z,100865.63
2022-07-25T06:48:46.948Z,100863.19
2022-07-25T06:51:13.401Z,100869.31
2022-07-25T06:53:39.809Z,100877.38
2022-07-25T06:56:06.337Z,100873.69
2022-07-25T06:58:32.728Z,100879.94
2022-07-25T07:01:01.109Z,100866.38
2022-07-25T07:03:27.986Z,100853.59
2022-07-25T07:05:54.418Z,100856.56
2022-07-25T07:08:20.905Z,100864.94
2022-07-25T07:10:47.270Z,100861.88
2022-07-25T07:13:15.265Z,100850.69
2022-07-25T07:15:48.225Z,100854.97
2022-07-25T07:18:14.820Z,100866.34
2022-07-25T07:20:41.199Z,100856.44
2022-07-25T07:23:07.585Z,100855.41
2022-07-25T07:25:35.075Z,100858.41
2022-07-25T07:28:01.640Z,100857.25
2022-07-25T07:30:58.643Z,100854.81
2022-07-25T07:33:14.860Z,100850.34
2022-07-25T07:35:43.811Z,100859.34
2022-07-25T07:38:10.212Z,100856.91
2022-07-25T07:40:36.584Z,100858.50
2022-07-25T07:43:03.969Z,100870.38
2022-07-25T07:45:31.258Z,100864.50
2022-07-25T07:47:57.893Z,100861.16
2022-07-25T07:50:27.382Z,100861.72
2022-07-25T07:52:55.750Z,100846.88
2022-07-25T07:55:41.225Z,100857.47
2022-07-25T07:58:07.974Z,100855.25
2022-07-25T08:00:36.256Z,100860.16
2022-07-25T08:03:03.810Z,100861.88
2022-07-25T08:05:42.957Z,100861.19
2022-07-25T08:08:12.546Z,100859.66
2022-07-25T08:10:41.231Z,100866.00
2022-07-25T08:13:16.612Z,100865.31
2022-07-25T08:15:46.242Z,100867.88
2022-07-25T08:18:17.042Z,100860.22
2022-07-25T08:20:44.940Z,100863.19
2022-07-25T08:23:11.707Z,100859.22
2022-07-25T08:25:38.477Z,100865.81
2022-07-25T08:28:06.528Z,100869.16
2022-07-25T08:30:34.486Z,100869.03
2022-07-25T08:33:03.497Z,100879.66
2022-07-25T08:35:30.846Z,100875.28
2022-07-25T08:37:58.433Z,100877.06
2022-07-25T08:40:27.718Z,100886.66
2022-07-25T08:42:58.484Z,100874.97
2022-07-25T08:45:26.694Z,100879.72
2022-07-25T08:47:54.561Z,100879.84
2022-07-25T08:50:27.084Z,100888.59
2022-07-25T08:53:04.875Z,100877.47
2022-07-25T08:55:40.718Z,100893.66
2022-07-25T08:58:07.232Z,100871.50
2022-07-25T09:00:33.670Z,100868.75
2022-07-25T09:03:02.963Z,100872.06
2022-07-25T09:05:32.019Z,100878.50
2022-07-25T09:08:06.488Z,100883.69
2022-07-25T09:10:33.014Z,100888.06
2022-07-25T09:13:03.145Z,100884.94
2022-07-25T09:15:35.069Z,100876.28
2022-07-25T09:18:09.338Z,100895.28
2022-07-25T09:20:49.377Z,100889.50
2022-07-25T09:23:36.245Z,100884.41
2022-07-25T09:26:14.698Z,100887.63
2022-07-25T09:28:45.847Z,100892.72
2022-07-25T09:31:13.539Z,100896.88
2022-07-25T09:33:54.170Z,100889.56
2022-07-25T09:36:20.605Z,100879.66
2022-07-25T09:38:54.789Z,100900.63
2022-07-25T09:41:21.860Z,100911.22
2022-07-25T09:43:48.482Z,100913.78
2022-07-25T09:46:15.044Z,100912.47
2022-07-25T09:48:44.908Z,100910.84
2022-07-25T09:51:12.715Z,100909.69
2022-07-25T09:53:40.697Z,100917.81
2022-07-25T09:56:08.565Z,100912.59
2022-07-25T09:58:35.036Z,100908.84
2022-07-25T10:01:05.152Z,100910.41
2022-07-25T10:04:00.397Z,100909.56
2022-07-25T10:06:40.493Z,100916.88
2022-07-25T10:09:12.705Z,100921.28
2022-07-25T10:11:39.787Z,100926.72
2022-07-25T10:14:12.731Z,100934.94
2022-07-25T10:16:47.593Z,100929.66
2022-07-25T10:19:14.568Z,100942.16
2022-07-25T10:21:41.495Z,100936.09
2022-07-25T10:24:10.471Z,100941.53
2022-07-25T10:26:42.061Z,100940.81
2022-07-25T10:29:10.647Z,100948.06
2022-07-25T10:31:49.349Z,100942.72
2022-07-25T10:34:16.728Z,100946.91
2022-07-25T10:36:51.750Z,100945.84
2022-07-25T10:39:19.776Z,100952.28
2022-07-25T10:42:00.400Z,100947.19
2022-07-25T10:44:30.504Z,100957.38
2022-07-25T10:47:08.882Z,100950.03
2022-07-25T10:49:37.514Z,100962.28
2022-07-25T10:52:04.749Z,100964.22
2022-07-25T10:54:36.401Z,100956.03
2022-07-25T10:57:05.164Z,100955.22
2022-07-25T10:59:37.888Z,100965.94
2022-07-25T11:02:06.803Z,100968.09
2022-07-25T11:04:33.436Z,100969.53
2022-07-25T11:07:14.520Z,100965.22
2022-07-25T11:09:43.232Z,100975.59
2022-07-25T11:12:14.251Z,100979.22
2022-07-25T11:14:42.687Z,100981.28
2022-07-25T11:17:23.930Z,100985.72
2022-07-25T11:20:03.817Z,100990.34
2022-07-25T11:22:31.345Z,100989.19
2022-07-25T11:24:58.889Z,100991.06
2022-07-25T11:27:30.779Z,100983.22
2022-07-25T11:30:11.932Z,100985.72
2022-07-25T11:32:46.108Z,100993.03
2022-07-25T11:35:14.350Z,101000.22
2022-07-25T11:37:43.721Z,100995.13
2022-07-25T11:40:10.860Z,100998.69
2022-07-25T11:42:43.443Z,100998.38
2022-07-25T11:45:18.390Z,101000.28
2022-07-25T11:47:45.261Z,101002.41
2022-07-25T11:50:14.895Z,101002.19
2022-07-25T11:52:43.034Z,101003.41
2022-07-25T11:55:17.071Z,101000.63
2022-07-25T11:57:46.877Z,101006.41
2022-07-25T12:00:19.465Z,101012.53
2022-07-25T12:02:46.651Z,101013.94
2022-07-25T12:05:15.378Z,101019.38
2022-07-25T12:07:48.085Z,101016.84
2022-07-25T12:10:17.880Z,101031.84
2022-07-25T12:12:53.749Z,101018.25
2022-07-25T12:15:25.744Z,101019.88
2022-07-25T12:17:53.993Z,101041.25
2022-07-25T12:20:21.769Z,101037.13
2022-07-25T12:22:49.924Z,101027.44
2022-07-25T12:25:16.963Z,101035.97
2022-07-25T12:27:43.678Z,101042.06
2022-07-25T12:30:10.993Z,101033.19
2022-07-25T12:32:38.101Z,101035.25
2022-07-25T12:35:06.950Z,101038.50
2022-07-25T12:37:33.707Z,101034.13
2022-07-25T12:40:00.765Z,101035.97
2022-07-25T12:42:28.802Z,101035.03
2022-07-25T12:44:56.312Z,101034.94
2022-07-25T12:47:23.724Z,101025.47
2022-07-25T12:49:50.237Z,101026.34
2022-07-25T12:52:17.002Z,101034.28
2022-07-25T12:54:43.824Z,101035.09
2022-07-25T12:57:11.873Z,101033.78
2022-07-25T12:59:38.509Z,101029.59
2022-07-25T13:02:05.194Z,101027.88
2022-07-25T13:04:31.801Z,101034.41
2022-07-25T13:06:59.084Z,101038.06
2022-07-25T13:09:26.206Z,101037.16
2022-07-25T13:11:52.952Z,101040.19
2022-07-25T13:14:19.958Z,101030.25
2022-07-25T13:16:47.715Z,101035.34
2022-07-25T13:19:15.696Z,101038.84
2022-07-25T13:21:42.880Z,101035.94
2022-07-25T13:24:10.179Z,101035.69
2022-07-25T13:26:37.759Z,101039.53
2022-07-25T13:29:09.565Z,101033.81
2022-07-25T13:31:39.550Z,101037.56
2022-07-25T13:34:06.661Z,101048.31
2022-07-25T13:36:38.088Z,101044.00
2022-07-25T13:39:05.750Z,101041.88
2022-07-25T13:41:32.503Z,101047.34
2022-07-25T13:43:58.940Z,101043.28
2022-07-25T13:46:25.694Z,101048.88
2022-07-25T13:48:52.892Z,101044.50
2022-07-25T13:51:19.437Z,101056.19
2022-07-25T13:53:45.901Z,101052.78
2022-07-25T13:56:15.776Z,101041.53
2022-07-25T13:58:43.078Z,101046.97
2022-07-25T14:01:11.458Z,101050.44
2022-07-25T14:03:37.964Z,101045.13
2022-07-25T14:06:05.508Z,101049.28
2022-07-25T14:08:32.354Z,101052.06
2022-07-25T14:10:58.825Z,101056.56
2022-07-25T14:13:25.223Z,101054.81
2022-07-25T14:15:52.403Z,101055.38
2022-07-25T14:18:18.833Z,101056.16
2022-07-25T14:20:45.273Z,101066.72
2022-07-25T14:23:11.670Z,101065.09
2022-07-25T14:25:38.387Z,101056.34
2022-07-25T14:28:04.928Z,101057.53
2022-07-25T14:30:31.316Z,101048.34
2022-07-25T14:32:57.721Z,101069.19
2022-07-25T14:35:28.790Z,101057.47
2022-07-25T14:37:58.392Z,101056.28
2022-07-25T14:40:24.803Z,101039.41
2022-07-25T14:42:51.236Z,101062.38
2022-07-25T14:45:18.837Z,101055.59
2022-07-25T14:47:45.227Z,101052.44
2022-07-25T14:50:11.713Z,101060.13
2022-07-25T14:52:38.153Z,101054.31
2022-07-25T14:55:05.306Z,101051.72
2022-07-25T14:57:31.788Z,101044.56
2022-07-25T14:59:58.219Z,101058.56
2022-07-25T15:02:24.608Z,101067.25
2022-07-25T15:04:51.137Z,101066.53
2022-07-25T15:07:17.620Z,101059.03
2022-07-25T15:09:44.005Z,101068.34
2022-07-25T15:12:16.160Z,101069.56
2022-07-25T15:14:43.294Z,101074.59
2022-07-25T15:17:09.722Z,101071.97
2022-07-25T15:19:36.144Z,101082.00
2022-07-25T15:22:03.322Z,101076.19
2022-07-25T15:24:29.834Z,101084.25
2022-07-25T15:26:57.174Z,101060.56
2022-07-25T15:29:23.621Z,101076.97
2022-07-25T15:31:50.478Z,101084.66
2022-07-25T15:34:16.979Z,101069.56
2022-07-25T15:36:43.394Z,101073.03
2022-07-25T15:39:10.130Z,101074.19
2022-07-25T15:41:37.082Z,101070.72
2022-07-25T15:44:03.871Z,101078.91
2022-07-25T15:46:30.536Z,101078.13
2022-07-25T15:48:57.825Z,101092.41
2022-07-25T15:51:24.807Z,101080.88
2022-07-25T15:53:51.236Z,101081.13
2022-07-25T15:56:17.665Z,101086.22
2022-07-25T15:58:44.527Z,101077.00
2022-07-25T16:01:11.422Z,101083.25
2022-07-25T16:03:38.256Z,101090.66
2022-07-25T16:06:04.824Z,101083.06
2022-07-25T16:08:32.097Z,101086.06
2022-07-25T16:10:59.777Z,101085.06
2022-07-25T16:13:26.396Z,101083.31
2022-07-25T16:15:52.840Z,101086.56
2022-07-25T16:18:19.308Z,101094.38
2022-07-25T16:20:45.704Z,101086.94
2022-07-25T16:23:12.102Z,101093.41
2022-07-25T16:25:38.521Z,101084.28
2022-07-25T16:28:06.440Z,101088.19
2022-07-25T16:30:33.070Z,101090.50
2022-07-25T16:32:59.461Z,101095.59
2022-07-25T16:35:25.973Z,101089.59
2022-07-25T16:37:52.803Z,101098.94
2022-07-25T16:40:19.338Z,101105.06
2022-07-25T16:42:49.339Z,101100.94
2022-07-25T16:45:15.734Z,101101.63
2022-07-25T16:47:43.934Z,101120.53
2022-07-25T16:50:10.423Z,101109.25
2022-07-25T16:52:36.949Z,101121.31
2022-07-25T16:55:03.844Z,101119.25
2022-07-25T16:57:31.492Z,101115.22
2022-07-25T16:59:58.058Z,101116.59
2022-07-25T17:02:29.330Z,101114.53
2022-07-25T17:04:56.413Z,101108.38
2022-07-25T17:07:23.017Z,101115.28
2022-07-25T17:09:49.408Z,101116.31
2022-07-25T17:12:17.384Z,101121.38
2022-07-25T17:14:44.518Z,101118.63
2022-07-25T17:17:11.006Z,101124.84
2022-07-25T17:19:39.846Z,101129.91
2022-07-25T17:22:07.335Z,101127.50
2022-07-25T17:24:33.752Z,101128.03
2022-07-25T17:27:01.141Z,101131.69
2022-07-25T17:29:27.800Z,101126.38
2022-07-25T17:31:54.214Z,101129.03
2022-07-25T17:34:21.751Z,101142.50
2022-07-25T17:36:48.350Z,101133.28
2022-07-25T17:39:14.841Z,101150.66
2022-07-25T17:41:41.245Z,101152.13
2022-07-25T17:44:11.955Z,101156.97
2022-07-25T17:46:38.939Z,101152.59
2022-07-25T17:49:05.551Z,101161.25
2022-07-25T17:51:31.995Z,101160.41
2022-07-25T17:53:58.393Z,101155.94
2022-07-25T17:56:24.809Z,101167.50
2022-07-25T17:58:51.239Z,101165.78
2022-07-25T18:01:17.721Z,101167.59
2022-07-25T18:03:47.437Z,101173.78
2022-07-25T18:06:14.409Z,101166.66
2022-07-25T18:08:40.885Z,101166.66
2022-07-25T18:11:07.325Z,101166.53
2022-07-25T18:13:34.714Z,101161.19
2022-07-25T18:16:01.181Z,101165.75
2022-07-25T18:18:27.700Z,101166.09
2022-07-25T18:20:54.216Z,101165.50
2022-07-25T18:23:20.641Z,101159.03
2022-07-25T18:25:47.267Z,101180.63
2022-07-25T18:28:14.093Z,101171.88
2022-07-25T18:30:40.593Z,101176.56
2022-07-25T18:33:07.694Z,101178.41
2022-07-25T18:35:34.247Z,101179.06
2022-07-25T18:38:01.869Z,101179.41
2022-07-25T18:40:28.910Z,101179.59
2022-07-25T18:42:55.313Z,101178.66
2022-07-25T18:45:24.127Z,101180.94
2022-07-25T18:47:51.209Z,101179.69
2022-07-25T18:50:20.195Z,101178.72
2022-07-25T18:52:46.941Z,101182.47
2022-07-25T18:55:13.336Z,101179.59
2022-07-25T18:57:39.801Z,101179.41
2022-07-25T19:00:08.073Z,101183.66
2022-07-25T19:02:34.840Z,101188.34
2022-07-25T19:05:01.633Z,101181.22
2022-07-25T19:07:29.805Z,101184.66
2022-07-25T19:09:56.221Z,101191.97
2022-07-25T19:12:26.406Z,101192.63
2022-07-25T19:14:56.299Z,101198.97
2022-07-25T19:17:23.878Z,101198.13
2022-07-25T19:19:51.793Z,101203.31
2022-07-25T19:22:18.380Z,101200.56
2022-07-25T19:24:44.808Z,101201.22
2022-07-25T19:27:11.274Z,101198.66
2022-07-25T19:29:38.190Z,101202.09
2022-07-25T19:32:05.042Z,101207.63
2022-07-25T19:34:31.465Z,101213.78
2022-07-25T19:36:58.092Z,101214.91
2022-07-25T19:39:24.750Z,101217.69
2022-07-25T19:41:54.499Z,101220.75
2022-07-25T19:44:21.139Z,101230.50
2022-07-25T19:46:48.964Z,101232.59
2022-07-25T19:49:15.504Z,101226.25
2022-07-25T19:51:42.060Z,101232.78
2022-07-25T19:54:09.670Z,101231.63
2022-07-25T19:56:36.436Z,101241.69
2022-07-25T19:59:03.268Z,101241.69
2022-07-25T20:01:31.302Z,101234.09
2022-07-25T20:06:24.749Z,101236.00
2022-07-25T20:08:51.212Z,101234.25
2022-07-25T20:11:17.644Z,101227.13
2022-07-25T20:13:44.052Z,101245.44
2022-07-25T20:16:11.071Z,101233.94
2022-07-25T20:18:38.565Z,101236.22
2022-07-25T20:21:05.690Z,101247.06
2022-07-25T20:23:32.759Z,101239.97
2022-07-25T20:26:00.585Z,101245.63
2022-07-25T20:28:27.072Z,101245.78
2022-07-25T20:30:54.051Z,101245.66
2022-07-25T20:33:20.862Z,101241.28
2022-07-25T20:35:47.352Z,101250.19
2022-07-25T20:38:13.757Z,101250.34
2022-07-25T20:40:48.092Z,101251.00
2022-07-25T20:43:16.057Z,101254.69
2022-07-25T20:45:42.575Z,101244.94
2022-07-25T20:48:09.429Z,101249.47
2022-07-25T20:50:37.610Z,101252.88
2022-07-25T20:53:06.045Z,101254.00
2022-07-25T20:55:33.160Z,101254.00
2022-07-25T20:58:00.284Z,101257.91
2022-07-25T21:00:27.648Z,101254.66
2022-07-25T21:02:55.361Z,101252.06
2022-07-25T21:05:22.031Z,101259.81
2022-07-25T21:07:48.486Z,101258.84
2022-07-25T21:10:15.242Z,101258.69
2022-07-25T21:12:41.906Z,101266.31
2022-07-25T21:15:09.322Z,101271.63
2022-07-25T21:17:35.717Z,101264.19
2022-07-25T21:20:02.492Z,101270.97
2022-07-25T21:22:28.899Z,101274.06
2022-07-25T21:24:55.426Z,101275.03
2022-07-25T21:27:22.475Z,101275.03
2022-07-25T21:29:49.334Z,101272.94
2022-07-25T21:32:17.263Z,101271.63
2022-07-25T21:34:45.584Z,101267.09
2022-07-25T21:37:13.015Z,101268.22
2022-07-25T21:39:39.531Z,101270.28
2022-07-25T21:42:09.727Z,101274.50
2022-07-25T21:44:38.611Z,101272.38
2022-07-25T21:47:05.095Z,101274.00
2022-07-25T21:49:49.937Z,101276.75
2022-07-25T21:52:17.251Z,101277.88
2022-07-25T21:54:44.688Z,101284.81
2022-07-25T21:57:13.420Z,101275.59
2022-07-25T21:59:41.869Z,101288.06
2022-07-25T22:02:08.392Z,101281.88
2022-07-25T22:04:34.811Z,101279.75
2022-07-25T22:07:01.373Z,101279.44
2022-07-25T22:09:28.015Z,101284.75
2022-07-25T22:11:55.635Z,101281.34
2022-07-25T22:14:22.145Z,101281.97
2022-07-25T22:16:48.573Z,101285.84
2022-07-25T22:19:15.108Z,101286.47
2022-07-25T22:21:42.090Z,101289.72
2022-07-25T22:24:08.894Z,101290.84
2022-07-25T22:26:35.885Z,101297.47
2022-07-25T22:29:02.540Z,101293.94
2022-07-25T22:31:29.713Z,101298.31
2022-07-25T22:33:56.164Z,101298.47
2022-07-25T22:36:22.571Z,101294.59
2022-07-25T22:38:50.263Z,101300.72
2022-07-25T22:41:16.781Z,101300.72
2022-07-25T22:43:56.645Z,101299.09
2022-07-25T22:46:26.321Z,101306.84
2022-07-25T22:48:53.286Z,101301.47
2022-07-25T22:51:19.740Z,101302.59
2022-07-25T22:53:46.189Z,101300.97
2022-07-25T22:56:12.588Z,101300.97
2022-07-25T22:58:38.973Z,101297.09
2022-07-25T23:01:05.413Z,101305.66
2022-07-25T23:03:33.237Z,101308.72
2022-07-25T23:05:59.986Z,101311.47
2022-07-25T23:08:26.375Z,101299.84
2022-07-25T23:10:52.809Z,101305.84
2022-07-25T23:13:19.289Z,101305.34
2022-07-25T23:15:51.077Z,101308.09
2022-07-25T23:18:19.776Z,101305.34
2022-07-25T23:20:46.851Z,101308.09
2022-07-25T23:23:13.664Z,101306.97
2022-07-25T23:25:40.301Z,101308.72
2022-07-25T23:28:06.690Z,101314.22
2022-07-25T23:30:36.722Z,101308.72
2022-07-25T23:33:08.673Z,101304.34
2022-07-25T23:35:35.412Z,101312.59
2022-07-25T23:38:01.919Z,101311.59
2022-07-25T23:40:28.374Z,101313.22
2022-07-25T23:42:54.962Z,101316.16
2022-07-25T23:45:22.445Z,101312.78
2022-07-25T23:47:53.984Z,101314.22
2022-07-25T23:50:20.620Z,101312.59
2022-07-25T23:52:47.097Z,101320.84
2022-07-25T23:55:13.527Z,101321.31
2022-07-25T23:57:39.970Z,101320.53
